KCLW/CLW METAR and TAF weather

Enter ICAO airport designator
Station Type Date Time Source
KCLW METAR 2019/08/19 22:55 UTC NOAA

KCLW 192255Z AUTO 00000KT 10SM CLR 30/23 A3001 RMK AO2


Station Type Date Time Source
KCLW Decoded METAR 2019/08/19 22:55 UTC NOAA

Station name not available
Aug 19, 2019 - 06:55 PM EDT / 2019.08.19 2255 UTC
Wind: Calm:0
Visibility: 10 mile(s):0
Sky conditions: clear
Temperature: 86 F (30 C)
Heat index: 93.4 F (34.1 C):1
Dew Point: 73 F (23 C)
Relative Humidity: 66%
Pressure (altimeter): 30.01 in. Hg (1016 hPa)
ob: KCLW 192255Z AUTO 00000KT 10SM CLR 30/23 A3001 RMK AO2
cycle: 23

Station Type Date Time Source
KCLW TAF UTC NOAA

Error!

Example: see airport list